sensor_id;sensor_type;location;lat;lon;timestamp;temperature;humidity
63960;DHT22;50136;51.374;0.096;2024-03-06T00:02:59;6.90;99.90
63960;DHT22;50136;51.374;0.096;2024-03-06T00:13:03;6.80;99.90
63960;DHT22;50136;51.374;0.096;2024-03-06T00:23:05;6.50;99.90
63960;DHT22;50136;51.374;0.096;2024-03-06T00:33:08;6.40;99.90
63960;DHT22;50136;51.374;0.096;2024-03-06T00:43:11;6.30;99.90
63960;DHT22;50136;51.374;0.096;2024-03-06T00:53:14;6.20;99.90
63960;DHT22;50136;51.374;0.096;2024-03-06T01:03:16;6.10;99.90
63960;DHT22;50136;51.374;0.096;2024-03-06T01:13:19;5.80;99.90
63960;DHT22;50136;51.374;0.096;2024-03-06T01:23:21;5.60;99.90
63960;DHT22;50136;51.374;0.096;2024-03-06T01:33:25;5.60;99.90
63960;DHT22;50136;51.374;0.096;2024-03-06T01:43:27;5.50;99.90
63960;DHT22;50136;51.374;0.096;2024-03-06T01:53:32;5.40;99.90
63960;DHT22;50136;51.374;0.096;2024-03-06T02:03:34;5.20;99.90
63960;DHT22;50136;51.374;0.096;2024-03-06T02:13:38;5.20;99.90
63960;DHT22;50136;51.374;0.096;2024-03-06T02:23:42;5.10;99.90
63960;DHT22;50136;51.374;0.096;2024-03-06T02:33:44;5.10;99.90
63960;DHT22;50136;51.374;0.096;2024-03-06T02:43:47;5.10;99.90
63960;DHT22;50136;51.374;0.096;2024-03-06T02:53:51;5.00;99.90
63960;DHT22;50136;51.374;0.096;2024-03-06T03:03:54;5.20;99.90
63960;DHT22;50136;51.374;0.096;2024-03-06T03:13:56;5.30;99.90
63960;DHT22;50136;51.374;0.096;2024-03-06T03:24:00;5.40;99.90
63960;DHT22;50136;51.374;0.096;2024-03-06T03:34:01;5.30;99.90
63960;DHT22;50136;51.374;0.096;2024-03-06T03:44:05;5.30;99.90
63960;DHT22;50136;51.374;0.096;2024-03-06T03:54:07;5.30;99.90
63960;DHT22;50136;51.374;0.096;2024-03-06T04:04:10;5.30;99.90
63960;DHT22;50136;51.374;0.096;2024-03-06T04:14:12;5.50;99.90
63960;DHT22;50136;51.374;0.096;2024-03-06T04:24:16;5.60;99.90
63960;DHT22;50136;51.374;0.096;2024-03-06T04:34:18;5.80;99.90
63960;DHT22;50136;51.374;0.096;2024-03-06T04:44:21;6.00;99.90
63960;DHT22;50136;51.374;0.096;2024-03-06T04:54:23;6.00;99.90
63960;DHT22;50136;51.374;0.096;2024-03-06T05:04:27;6.20;99.90
63960;DHT22;50136;51.374;0.096;2024-03-06T05:14:46;6.20;99.90
63960;DHT22;50136;51.374;0.096;2024-03-06T05:25:06;6.20;99.90
63960;DHT22;50136;51.374;0.096;2024-03-06T05:35:26;6.40;99.90
63960;DHT22;50136;51.374;0.096;2024-03-06T05:45:47;6.50;99.90
63960;DHT22;50136;51.374;0.096;2024-03-06T05:56:06;6.40;99.90
63960;DHT22;50136;51.374;0.096;2024-03-06T06:06:27;6.40;99.90
63960;DHT22;50136;51.374;0.096;2024-03-06T06:16:35;6.50;99.90
63960;DHT22;50136;51.374;0.096;2024-03-06T06:26:39;6.60;99.90
63960;DHT22;50136;51.374;0.096;2024-03-06T06:36:45;6.60;99.90
63960;DHT22;50136;51.374;0.096;2024-03-06T06:46:48;6.60;99.90
63960;DHT22;50136;51.374;0.096;2024-03-06T06:56:50;6.60;99.90
63960;DHT22;50136;51.374;0.096;2024-03-06T07:06:54;6.50;99.90
63960;DHT22;50136;51.374;0.096;2024-03-06T07:16:56;6.60;99.90
63960;DHT22;50136;51.374;0.096;2024-03-06T07:26:59;6.60;99.90
63960;DHT22;50136;51.374;0.096;2024-03-06T07:37:01;6.80;99.90
63960;DHT22;50136;51.374;0.096;2024-03-06T07:47:08;6.80;99.90
63960;DHT22;50136;51.374;0.096;2024-03-06T07:57:10;6.90;99.90
63960;DHT22;50136;51.374;0.096;2024-03-06T08:07:13;7.20;99.90
63960;DHT22;50136;51.374;0.096;2024-03-06T08:17:15;7.30;99.90
63960;DHT22;50136;51.374;0.096;2024-03-06T08:27:19;7.40;99.90
63960;DHT22;50136;51.374;0.096;2024-03-06T08:37:21;7.20;99.90
63960;DHT22;50136;51.374;0.096;2024-03-06T08:47:24;7.50;99.90
63960;DHT22;50136;51.374;0.096;2024-03-06T08:57:26;7.80;99.90
63960;DHT22;50136;51.374;0.096;2024-03-06T09:07:30;7.90;99.90
63960;DHT22;50136;51.374;0.096;2024-03-06T09:17:33;8.00;99.90
63960;DHT22;50136;51.374;0.096;2024-03-06T09:27:37;8.50;99.90
63960;DHT22;50136;51.374;0.096;2024-03-06T09:37:39;8.90;99.90
63960;DHT22;50136;51.374;0.096;2024-03-06T09:47:43;8.70;99.90
63960;DHT22;50136;51.374;0.096;2024-03-06T09:57:45;8.40;99.90
63960;DHT22;50136;51.374;0.096;2024-03-06T10:07:50;8.20;99.90
63960;DHT22;50136;51.374;0.096;2024-03-06T10:17:52;9.20;99.90
63960;DHT22;50136;51.374;0.096;2024-03-06T10:28:06;12.20;99.90
63960;DHT22;50136;51.374;0.096;2024-03-06T10:38:10;11.40;99.90
63960;DHT22;50136;51.374;0.096;2024-03-06T10:48:14;10.70;99.90
63960;DHT22;50136;51.374;0.096;2024-03-06T10:58:16;11.20;99.90
63960;DHT22;50136;51.374;0.096;2024-03-06T11:08:21;11.00;99.90
63960;DHT22;50136;51.374;0.096;2024-03-06T11:18:43;10.90;99.90
63960;DHT22;50136;51.374;0.096;2024-03-06T11:28:46;11.60;99.90
63960;DHT22;50136;51.374;0.096;2024-03-06T11:38:52;11.80;99.90
63960;DHT22;50136;51.374;0.096;2024-03-06T11:48:56;11.30;99.90
63960;DHT22;50136;51.374;0.096;2024-03-06T11:58:59;11.40;99.90
63960;DHT22;50136;51.374;0.096;2024-03-06T12:09:02;11.20;99.90
63960;DHT22;50136;51.374;0.096;2024-03-06T12:19:04;11.10;99.90
63960;DHT22;50136;51.374;0.096;2024-03-06T12:29:10;10.90;99.90
63960;DHT22;50136;51.374;0.096;2024-03-06T12:39:21;10.90;99.90
63960;DHT22;50136;51.374;0.096;2024-03-06T12:49:24;11.00;99.90
63960;DHT22;50136;51.374;0.096;2024-03-06T12:59:26;11.20;99.90
63960;DHT22;50136;51.374;0.096;2024-03-06T13:09:30;11.90;99.90
63960;DHT22;50136;51.374;0.096;2024-03-06T13:19:32;11.90;99.90
63960;DHT22;50136;51.374;0.096;2024-03-06T13:29:35;11.60;99.90
63960;DHT22;50136;51.374;0.096;2024-03-06T13:39:37;11.30;99.90
63960;DHT22;50136;51.374;0.096;2024-03-06T13:49:41;11.30;99.90
63960;DHT22;50136;51.374;0.096;2024-03-06T13:59:43;11.60;99.90
63960;DHT22;50136;51.374;0.096;2024-03-06T14:09:47;11.20;99.90
63960;DHT22;50136;51.374;0.096;2024-03-06T14:19:49;11.00;99.90
63960;DHT22;50136;51.374;0.096;2024-03-06T14:29:52;11.00;99.90
63960;DHT22;50136;51.374;0.096;2024-03-06T14:39:55;11.20;99.90
63960;DHT22;50136;51.374;0.096;2024-03-06T14:49:58;11.20;99.90
63960;DHT22;50136;51.374;0.096;2024-03-06T15:00:00;11.10;99.90
63960;DHT22;50136;51.374;0.096;2024-03-06T15:10:04;11.30;99.90
63960;DHT22;50136;51.374;0.096;2024-03-06T15:20:07;11.30;99.90
63960;DHT22;50136;51.374;0.096;2024-03-06T15:30:11;11.50;99.90
63960;DHT22;50136;51.374;0.096;2024-03-06T15:40:13;11.50;99.90
63960;DHT22;50136;51.374;0.096;2024-03-06T15:50:17;11.90;99.90
63960;DHT22;50136;51.374;0.096;2024-03-06T16:00:19;12.70;99.90
63960;DHT22;50136;51.374;0.096;2024-03-06T16:10:23;13.00;99.90
63960;DHT22;50136;51.374;0.096;2024-03-06T16:20:26;12.40;99.90
63960;DHT22;50136;51.374;0.096;2024-03-06T16:31:02;11.80;99.90
63960;DHT22;50136;51.374;0.096;2024-03-06T16:41:08;11.50;99.90
63960;DHT22;50136;51.374;0.096;2024-03-06T16:51:17;11.30;99.90
63960;DHT22;50136;51.374;0.096;2024-03-06T17:01:19;10.90;99.90
63960;DHT22;50136;51.374;0.096;2024-03-06T17:11:23;10.70;99.90
63960;DHT22;50136;51.374;0.096;2024-03-06T17:21:25;10.50;99.90
63960;DHT22;50136;51.374;0.096;2024-03-06T17:31:28;10.30;99.90
63960;DHT22;50136;51.374;0.096;2024-03-06T17:41:30;10.10;99.90
63960;DHT22;50136;51.374;0.096;2024-03-06T17:51:34;10.00;99.90
63960;DHT22;50136;51.374;0.096;2024-03-06T18:01:36;9.80;99.90
63960;DHT22;50136;51.374;0.096;2024-03-06T18:11:39;9.40;99.90
63960;DHT22;50136;51.374;0.096;2024-03-06T18:21:42;9.10;99.90
63960;DHT22;50136;51.374;0.096;2024-03-06T18:31:50;8.90;99.90
63960;DHT22;50136;51.374;0.096;2024-03-06T18:41:52;8.80;99.90
63960;DHT22;50136;51.374;0.096;2024-03-06T18:51:56;8.60;99.90
63960;DHT22;50136;51.374;0.096;2024-03-06T19:01:58;8.40;99.90
63960;DHT22;50136;51.374;0.096;2024-03-06T19:12:01;8.20;99.90
63960;DHT22;50136;51.374;0.096;2024-03-06T19:22:04;8.00;99.90
63960;DHT22;50136;51.374;0.096;2024-03-06T19:32:07;7.70;99.90
63960;DHT22;50136;51.374;0.096;2024-03-06T19:42:10;7.60;99.90
63960;DHT22;50136;51.374;0.096;2024-03-06T19:52:13;7.40;99.90
63960;DHT22;50136;51.374;0.096;2024-03-06T20:02:15;7.20;99.90
63960;DHT22;50136;51.374;0.096;2024-03-06T20:12:19;6.90;99.90
63960;DHT22;50136;51.374;0.096;2024-03-06T20:22:21;6.60;99.90
63960;DHT22;50136;51.374;0.096;2024-03-06T20:43:05;6.20;99.90
63960;DHT22;50136;51.374;0.096;2024-03-06T20:53:07;6.10;99.90
63960;DHT22;50136;51.374;0.096;2024-03-06T21:03:49;6.00;99.90
63960;DHT22;50136;51.374;0.096;2024-03-06T21:14:05;5.70;99.90
63960;DHT22;50136;51.374;0.096;2024-03-06T21:35:46;5.50;99.90
63960;DHT22;50136;51.374;0.096;2024-03-06T21:45:52;5.30;99.90
63960;DHT22;50136;51.374;0.096;2024-03-06T21:56:11;5.10;99.90
63960;DHT22;50136;51.374;0.096;2024-03-06T22:06:49;5.00;99.90
63960;DHT22;50136;51.374;0.096;2024-03-06T22:17:21;4.80;99.90
63960;DHT22;50136;51.374;0.096;2024-03-06T22:28:00;4.70;99.90
63960;DHT22;50136;51.374;0.096;2024-03-06T22:38:07;4.50;99.90
63960;DHT22;50136;51.374;0.096;2024-03-06T22:48:33;4.50;99.90
63960;DHT22;50136;51.374;0.096;2024-03-06T22:59:02;4.40;99.90
63960;DHT22;50136;51.374;0.096;2024-03-06T23:09:30;4.30;99.90
63960;DHT22;50136;51.374;0.096;2024-03-06T23:19:33;4.10;99.90
63960;DHT22;50136;51.374;0.096;2024-03-06T23:29:36;4.10;99.90
63960;DHT22;50136;51.374;0.096;2024-03-06T23:39:38;4.00;99.90
63960;DHT22;50136;51.374;0.096;2024-03-06T23:49:42;3.80;99.90
63960;DHT22;50136;51.374;0.096;2024-03-06T23:59:44;3.70;99.90
